sensor_id;sensor_type;location;lat;lon;timestamp;P1;P4;P2;P0;N10;N4;N25;N1;N05;TS
70689;SPS30;58266;52.166;5.290;2022-11-02T00:00:34;2.11;2.06;1.84;1.48;11.90;11.89;11.83;11.51;9.73;0.63
70689;SPS30;58266;52.166;5.290;2022-11-02T00:02:34;2.11;2.07;1.86;1.51;12.08;12.07;12.01;11.70;9.91;0.62
70689;SPS30;58266;52.166;5.290;2022-11-02T00:04:34;2.08;2.03;1.83;1.49;11.93;11.92;11.87;11.57;9.80;0.63
70689;SPS30;58266;52.166;5.290;2022-11-02T00:06:35;2.09;2.05;1.86;1.54;12.33;12.32;12.27;11.99;10.20;0.63
70689;SPS30;58266;52.166;5.290;2022-11-02T00:08:35;2.25;2.22;2.03;1.70;13.58;13.57;13.52;13.24;11.31;0.64
70689;SPS30;58266;52.166;5.290;2022-11-02T00:10:35;2.10;2.06;1.88;1.56;12.50;12.50;12.45;12.17;10.38;0.64
70689;SPS30;58266;52.166;5.290;2022-11-02T00:12:35;2.26;2.21;1.99;1.63;13.05;13.04;12.98;12.66;10.74;0.65
70689;SPS30;58266;52.166;5.290;2022-11-02T00:14:35;2.14;2.10;1.87;1.50;12.05;12.04;11.98;11.65;9.84;0.66
70689;SPS30;58266;52.166;5.290;2022-11-02T00:16:36;2.12;2.08;1.86;1.50;12.04;12.03;11.97;11.65;9.85;0.65
70689;SPS30;58266;52.166;5.290;2022-11-02T00:18:38;2.52;2.46;2.21;1.79;14.36;14.35;14.28;13.91;11.78;0.63
70689;SPS30;58266;52.166;5.290;2022-11-02T00:20:38;2.26;2.21;1.98;1.59;12.76;12.75;12.68;12.34;10.43;0.63
70689;SPS30;58266;52.166;5.290;2022-11-02T00:22:41;2.27;2.22;1.97;1.58;12.69;12.68;12.62;12.27;10.35;0.65
70689;SPS30;58266;52.166;5.290;2022-11-02T00:24:43;2.26;2.21;1.96;1.57;12.55;12.54;12.48;12.13;10.22;0.67
70689;SPS30;58266;52.166;5.290;2022-11-02T00:26:43;2.16;2.11;1.86;1.47;11.80;11.79;11.73;11.37;9.55;0.68
70689;SPS30;58266;52.166;5.290;2022-11-02T00:28:43;2.13;2.08;1.86;1.50;12.05;12.04;11.98;11.66;9.86;0.68
70689;SPS30;58266;52.166;5.290;2022-11-02T00:30:44;2.02;1.99;1.80;1.48;11.84;11.83;11.78;11.50;9.78;0.68
70689;SPS30;58266;52.166;5.290;2022-11-02T00:32:44;1.93;1.89;1.73;1.44;11.56;11.56;11.51;11.27;9.62;0.67
70689;SPS30;58266;52.166;5.290;2022-11-02T00:34:44;2.20;2.16;1.97;1.64;13.10;13.09;13.04;12.75;10.87;0.67
70689;SPS30;58266;52.166;5.290;2022-11-02T00:36:44;2.23;2.19;1.97;1.61;12.90;12.89;12.84;12.52;10.62;0.68
70689;SPS30;58266;52.166;5.290;2022-11-02T00:38:44;2.31;2.26;2.02;1.64;13.13;13.12;13.05;12.71;10.76;0.67
70689;SPS30;58266;52.166;5.290;2022-11-02T00:40:45;2.49;2.43;2.17;1.74;13.98;13.97;13.90;13.52;11.41;0.67
70689;SPS30;58266;52.166;5.290;2022-11-02T00:42:45;2.43;2.38;2.11;1.68;13.49;13.47;13.40;13.02;10.96;0.67
70689;SPS30;58266;52.166;5.290;2022-11-02T00:44:45;2.44;2.38;2.10;1.65;13.27;13.25;13.18;12.78;10.72;0.67
70689;SPS30;58266;52.166;5.290;2022-11-02T00:46:45;2.46;2.40;2.14;1.71;13.74;13.73;13.66;13.28;11.20;0.67
70689;SPS30;58266;52.166;5.290;2022-11-02T00:48:45;2.30;2.26;2.02;1.64;13.15;13.14;13.08;12.75;10.79;0.65
70689;SPS30;58266;52.166;5.290;2022-11-02T00:50:45;2.72;2.66;2.35;1.86;14.89;14.88;14.80;14.36;12.07;0.67
70689;SPS30;58266;52.166;5.290;2022-11-02T00:52:45;2.54;2.48;2.18;1.72;13.76;13.74;13.67;13.24;11.11;0.66
70689;SPS30;58266;52.166;5.290;2022-11-02T00:54:45;2.44;2.39;2.15;1.75;14.02;14.01;13.94;13.59;11.52;0.64
70689;SPS30;58266;52.166;5.290;2022-11-02T00:56:45;2.87;2.80;2.44;1.88;15.12;15.11;15.01;14.50;12.10;0.67
70689;SPS30;58266;52.166;5.290;2022-11-02T00:58:45;2.24;2.18;1.91;1.49;11.95;11.93;11.86;11.48;9.60;0.67
70689;SPS30;58266;52.166;5.290;2022-11-02T01:00:46;2.58;2.52;2.24;1.79;14.38;14.36;14.29;13.89;11.71;0.64
70689;SPS30;58266;52.166;5.290;2022-11-02T01:02:46;2.50;2.45;2.19;1.78;14.26;14.25;14.18;13.81;11.69;0.64
70689;SPS30;58266;52.166;5.290;2022-11-02T01:04:46;2.69;2.63;2.32;1.83;14.67;14.66;14.58;14.13;11.87;0.65
70689;SPS30;58266;52.166;5.290;2022-11-02T01:06:46;2.46;2.40;2.12;1.67;13.36;13.35;13.27;12.87;10.80;0.64
70689;SPS30;58266;52.166;5.290;2022-11-02T01:08:46;2.35;2.29;2.00;1.55;12.40;12.38;12.31;11.89;9.93;0.65
70689;SPS30;58266;52.166;5.290;2022-11-02T01:10:46;2.46;2.40;2.10;1.63;13.08;13.07;12.99;12.56;10.50;0.64
70689;SPS30;58266;52.166;5.290;2022-11-02T01:12:46;2.08;2.04;1.79;1.41;11.30;11.29;11.22;10.87;9.12;0.64
70689;SPS30;58266;52.166;5.290;2022-11-02T01:14:47;2.54;2.48;2.18;1.71;13.75;13.74;13.66;13.23;11.10;0.64
70689;SPS30;58266;52.166;5.290;2022-11-02T01:16:47;2.45;2.38;2.04;1.53;12.32;12.30;12.21;11.74;9.70;0.66
70689;SPS30;58266;52.166;5.290;2022-11-02T01:18:51;2.23;2.17;1.85;1.38;11.08;11.07;10.99;10.55;8.70;0.68
70689;SPS30;58266;52.166;5.290;2022-11-02T01:20:55;1.96;1.90;1.63;1.22;9.78;9.77;9.70;9.32;7.69;0.68
70689;SPS30;58266;52.166;5.290;2022-11-02T01:22:56;1.90;1.85;1.57;1.17;9.36;9.35;9.28;8.89;7.31;0.69
70689;SPS30;58266;52.166;5.290;2022-11-02T01:24:56;1.92;1.87;1.58;1.16;9.31;9.30;9.22;8.82;7.24;0.70
70689;SPS30;58266;52.166;5.290;2022-11-02T01:26:56;1.66;1.60;1.35;0.98;7.87;7.86;7.80;7.44;6.08;0.70
70689;SPS30;58266;52.166;5.290;2022-11-02T01:28:56;1.81;1.76;1.47;1.05;8.45;8.44;8.37;7.97;6.48;0.72
70689;SPS30;58266;52.166;5.290;2022-11-02T01:30:57;1.50;1.45;1.21;0.87;6.97;6.96;6.90;6.57;5.34;0.73
70689;SPS30;58266;52.166;5.290;2022-11-02T01:32:57;1.74;1.68;1.41;1.02;8.20;8.19;8.12;7.75;6.32;0.73
70689;SPS30;58266;52.166;5.290;2022-11-02T01:34:57;1.37;1.33;1.13;0.83;6.64;6.63;6.58;6.29;5.16;0.72
70689;SPS30;58266;52.166;5.290;2022-11-02T01:36:57;1.29;1.24;1.03;0.73;5.90;5.89;5.84;5.55;4.50;0.73
70689;SPS30;58266;52.166;5.290;2022-11-02T01:38:58;1.38;1.34;1.11;0.77;6.23;6.22;6.16;5.84;4.71;0.76
70689;SPS30;58266;52.166;5.290;2022-11-02T01:40:58;1.37;1.32;1.08;0.74;5.97;5.96;5.90;5.57;4.46;0.77
70689;SPS30;58266;52.166;5.290;2022-11-02T01:42:59;1.41;1.36;1.11;0.75;6.06;6.05;5.99;5.64;4.50;0.78
70689;SPS30;58266;52.166;5.290;2022-11-02T01:44:59;1.13;1.09;0.88;0.59;4.79;4.78;4.73;4.45;3.53;0.79
70689;SPS30;58266;52.166;5.290;2022-11-02T01:47:04;1.07;1.03;0.84;0.57;4.55;4.55;4.50;4.23;3.36;0.78
70689;SPS30;58266;52.166;5.290;2022-11-02T01:49:08;1.17;1.13;0.90;0.60;4.81;4.80;4.74;4.44;3.50;0.79
70689;SPS30;58266;52.166;5.290;2022-11-02T01:51:12;1.17;1.13;0.91;0.60;4.84;4.83;4.77;4.47;3.53;0.79
70689;SPS30;58266;52.166;5.290;2022-11-02T01:53:15;0.96;0.93;0.74;0.48;3.90;3.89;3.84;3.59;2.81;0.81
70689;SPS30;58266;52.166;5.290;2022-11-02T01:57:16;1.19;1.15;0.91;0.59;4.74;4.73;4.67;4.35;3.39;0.80
70689;SPS30;58266;52.166;5.290;2022-11-02T01:59:20;1.18;1.14;0.89;0.56;4.54;4.53;4.47;4.14;3.19;0.82
70689;SPS30;58266;52.166;5.290;2022-11-02T02:01:24;1.24;1.19;0.93;0.58;4.68;4.67;4.60;4.25;3.27;0.82
70689;SPS30;58266;52.166;5.290;2022-11-02T02:03:25;1.32;1.26;0.98;0.59;4.75;4.74;4.67;4.28;3.24;0.84
70689;SPS30;58266;52.166;5.290;2022-11-02T02:05:28;1.58;1.51;1.16;0.69;5.60;5.59;5.50;5.03;3.78;0.84
70689;SPS30;58266;52.166;5.290;2022-11-02T02:07:29;1.74;1.66;1.28;0.76;6.12;6.10;6.01;5.49;4.11;0.85
70689;SPS30;58266;52.166;5.290;2022-11-02T02:09:31;1.66;1.59;1.22;0.72;5.84;5.83;5.74;5.24;3.93;0.84
70689;SPS30;58266;52.166;5.290;2022-11-02T02:11:33;1.84;1.75;1.34;0.77;6.27;6.26;6.15;5.59;4.14;0.85
70689;SPS30;58266;52.166;5.290;2022-11-02T02:13:34;1.67;1.59;1.19;0.66;5.39;5.37;5.27;4.74;3.44;0.87
70689;SPS30;58266;52.166;5.290;2022-11-02T02:15:37;1.97;1.87;1.37;0.72;5.86;5.85;5.72;5.06;3.53;0.91
70689;SPS30;58266;52.166;5.290;2022-11-02T02:17:42;1.80;1.71;1.25;0.64;5.23;5.22;5.10;4.49;3.09;0.92
70689;SPS30;58266;52.166;5.290;2022-11-02T02:22:02;2.19;2.08;1.51;0.75;6.13;6.11;5.97;5.21;3.51;0.95
70689;SPS30;58266;52.166;5.290;2022-11-02T02:26:16;2.15;2.04;1.47;0.72;5.83;5.81;5.67;4.91;3.25;0.96
70689;SPS30;58266;52.166;5.290;2022-11-02T02:30:25;2.60;2.46;1.77;0.86;7.04;7.01;6.84;5.92;3.92;0.97
70689;SPS30;58266;52.166;5.290;2022-11-02T02:32:46;2.24;2.12;1.52;0.74;6.00;5.98;5.83;5.03;3.30;0.98
70689;SPS30;58266;52.166;5.290;2022-11-02T02:34:55;2.23;2.11;1.52;0.74;6.06;6.04;5.89;5.10;3.39;0.97
70689;SPS30;58266;52.166;5.290;2022-11-02T02:37:05;2.48;2.35;1.69;0.82;6.66;6.63;6.47;5.58;3.68;0.97
70689;SPS30;58266;52.166;5.290;2022-11-02T02:39:14;3.11;2.95;2.11;1.02;8.34;8.31;8.10;6.99;4.60;0.97
70689;SPS30;58266;52.166;5.290;2022-11-02T02:41:38;2.82;2.66;1.91;0.93;7.58;7.55;7.36;6.36;4.20;0.96
70689;SPS30;58266;52.166;5.290;2022-11-02T02:43:45;2.85;2.70;1.95;0.98;7.94;7.92;7.73;6.74;4.54;0.94
70689;SPS30;58266;52.166;5.290;2022-11-02T02:45:53;2.83;2.68;1.95;0.99;8.08;8.05;7.87;6.89;4.71;0.91
70689;SPS30;58266;52.166;5.290;2022-11-02T02:50:08;2.85;2.72;2.02;1.10;8.89;8.86;8.69;7.75;5.53;0.87
70689;SPS30;58266;52.166;5.290;2022-11-02T02:52:11;2.62;2.50;1.88;1.06;8.58;8.56;8.40;7.58;5.52;0.85
70689;SPS30;58266;52.166;5.290;2022-11-02T02:54:16;2.80;2.67;2.05;1.22;9.86;9.84;9.68;8.85;6.64;0.81
70689;SPS30;58266;52.166;5.290;2022-11-02T02:56:20;2.31;2.21;1.72;1.05;8.48;8.46;8.33;7.67;5.83;0.81
70689;SPS30;58266;52.166;5.290;2022-11-02T02:58:24;2.90;2.77;2.17;1.35;10.87;10.85;10.70;9.88;7.57;0.80
70689;SPS30;58266;52.166;5.290;2022-11-02T03:00:27;2.55;2.45;1.93;1.21;9.77;9.75;9.61;8.91;6.87;0.80
70689;SPS30;58266;52.166;5.290;2022-11-02T03:02:31;2.92;2.80;2.23;1.45;11.67;11.65;11.50;10.73;8.39;0.78
70689;SPS30;58266;52.166;5.290;2022-11-02T03:04:32;2.27;2.19;1.79;1.23;9.91;9.89;9.79;9.25;7.40;0.74
70689;SPS30;58266;52.166;5.290;2022-11-02T03:06:32;2.67;2.58;2.11;1.46;11.75;11.73;11.62;10.98;8.81;0.75
70689;SPS30;58266;52.166;5.290;2022-11-02T03:08:35;2.59;2.51;2.09;1.49;12.01;11.99;11.89;11.31;9.18;0.73
70689;SPS30;58266;52.166;5.290;2022-11-02T03:10:41;2.30;2.22;1.86;1.34;10.79;10.78;10.68;10.19;8.30;0.73
70689;SPS30;58266;52.166;5.290;2022-11-02T03:12:50;2.46;2.39;2.01;1.46;11.74;11.72;11.63;11.10;9.08;0.73
70689;SPS30;58266;52.166;5.290;2022-11-02T03:21:23;2.41;2.34;1.96;1.41;11.34;11.33;11.23;10.71;8.72;0.73
70689;SPS30;58266;52.166;5.290;2022-11-02T03:25:49;2.38;2.31;1.95;1.44;11.55;11.54;11.45;10.96;9.00;0.69
70689;SPS30;58266;52.166;5.290;2022-11-02T03:28:03;2.52;2.44;2.05;1.47;11.85;11.84;11.73;11.19;9.12;0.71
70689;SPS30;58266;52.166;5.290;2022-11-02T03:30:10;2.60;2.52;2.09;1.47;11.84;11.82;11.71;11.12;9.00;0.72
70689;SPS30;58266;52.166;5.290;2022-11-02T03:32:19;2.46;2.38;1.97;1.38;11.07;11.06;10.95;10.38;8.37;0.73
70689;SPS30;58266;52.166;5.290;2022-11-02T03:36:24;3.13;3.02;2.44;1.63;13.11;13.08;12.94;12.14;9.61;0.78
70689;SPS30;58266;52.166;5.290;2022-11-02T03:38:33;2.98;2.86;2.30;1.52;12.22;12.20;12.06;11.29;8.89;0.79
70689;SPS30;58266;52.166;5.290;2022-11-02T03:40:38;2.82;2.71;2.18;1.44;11.60;11.58;11.45;10.72;8.45;0.79
70689;SPS30;58266;52.166;5.290;2022-11-02T03:42:41;2.63;2.53;2.03;1.33;10.73;10.71;10.58;9.90;7.78;0.80
70689;SPS30;58266;52.166;5.290;2022-11-02T03:44:43;2.99;2.88;2.31;1.53;12.33;12.31;12.16;11.40;8.99;0.80
70689;SPS30;58266;52.166;5.290;2022-11-02T03:46:45;3.02;2.91;2.33;1.53;12.34;12.32;12.17;11.39;8.95;0.80
70689;SPS30;58266;52.166;5.290;2022-11-02T03:48:49;3.27;3.14;2.47;1.55;12.53;12.51;12.34;11.43;8.82;0.83
70689;SPS30;58266;52.166;5.290;2022-11-02T03:50:51;3.52;3.38;2.64;1.64;13.24;13.21;13.03;12.04;9.23;0.82
70689;SPS30;58266;52.166;5.290;2022-11-02T03:52:54;3.94;3.77;2.91;1.76;14.19;14.16;13.94;12.79;9.67;0.84
70689;SPS30;58266;52.166;5.290;2022-11-02T03:55:04;4.08;3.90;3.01;1.80;14.54;14.50;14.28;13.07;9.84;0.84
70689;SPS30;58266;52.166;5.290;2022-11-02T03:57:08;3.47;3.32;2.57;1.56;12.60;12.57;12.38;11.37;8.62;0.84
70689;SPS30;58266;52.166;5.290;2022-11-02T03:59:11;4.44;4.24;3.22;1.86;15.08;15.05;14.79;13.43;9.93;0.86
70689;SPS30;58266;52.166;5.290;2022-11-02T04:01:11;3.65;3.49;2.67;1.57;12.67;12.64;12.44;11.34;8.46;0.86
70689;SPS30;58266;52.166;5.290;2022-11-02T04:03:12;3.68;3.52;2.72;1.64;13.27;13.24;13.03;11.96;9.04;0.83
70689;SPS30;58266;52.166;5.290;2022-11-02T04:05:12;3.76;3.60;2.78;1.68;13.60;13.57;13.36;12.27;9.29;0.83
70689;SPS30;58266;52.166;5.290;2022-11-02T04:07:12;4.10;3.92;3.04;1.84;14.85;14.82;14.59;13.40;10.15;0.83
70689;SPS30;58266;52.166;5.290;2022-11-02T04:09:12;3.83;3.67;2.86;1.76;14.18;14.15;13.95;12.85;9.80;0.82
70689;SPS30;58266;52.166;5.290;2022-11-02T04:11:13;3.94;3.77;2.94;1.82;14.66;14.63;14.42;13.30;10.16;0.83
70689;SPS30;58266;52.166;5.290;2022-11-02T04:13:13;4.05;3.88;3.03;1.88;15.15;15.11;14.90;13.75;10.53;0.82
70689;SPS30;58266;52.166;5.290;2022-11-02T04:15:13;3.53;3.39;2.65;1.65;13.35;13.32;13.14;12.15;9.33;0.81
70689;SPS30;58266;52.166;5.290;2022-11-02T04:17:14;3.77;3.61;2.84;1.78;14.35;14.32;14.12;13.07;10.06;0.81
70689;SPS30;58266;52.166;5.290;2022-11-02T04:19:14;3.48;3.34;2.64;1.67;13.45;13.42;13.25;12.29;9.50;0.81
70689;SPS30;58266;52.166;5.290;2022-11-02T04:21:14;4.21;4.03;3.16;1.96;15.83;15.80;15.57;14.39;11.04;0.82
70689;SPS30;58266;52.166;5.290;2022-11-02T04:23:14;4.06;3.88;2.99;1.79;14.48;14.44;14.22;13.02;9.81;0.83
70689;SPS30;58266;52.166;5.290;2022-11-02T04:25:15;3.94;3.77;2.92;1.76;14.25;14.21;14.00;12.85;9.73;0.83
70689;SPS30;58266;52.166;5.290;2022-11-02T04:27:16;4.44;4.24;3.26;1.94;15.68;15.64;15.39;14.07;10.57;0.84
70689;SPS30;58266;52.166;5.290;2022-11-02T04:29:16;4.51;4.31;3.30;1.94;15.72;15.68;15.43;14.07;10.51;0.84
70689;SPS30;58266;52.166;5.290;2022-11-02T04:31:16;4.76;4.55;3.47;2.02;16.37;16.33;16.06;14.61;10.86;0.86
70689;SPS30;58266;52.166;5.290;2022-11-02T04:33:16;5.20;4.96;3.73;2.09;16.97;16.93;16.62;14.97;10.90;0.87
70689;SPS30;58266;52.166;5.290;2022-11-02T04:35:16;4.92;4.69;3.51;1.95;15.79;15.75;15.45;13.88;10.03;0.87
70689;SPS30;58266;52.166;5.290;2022-11-02T04:37:16;4.48;4.28;3.24;1.86;15.09;15.05;14.79;13.41;9.88;0.86
70689;SPS30;58266;52.166;5.290;2022-11-02T04:39:17;4.80;4.58;3.46;1.96;15.87;15.82;15.54;14.04;10.27;0.88
70689;SPS30;58266;52.166;5.290;2022-11-02T04:41:17;4.56;4.34;3.22;1.74;14.09;14.05;13.77;12.28;8.72;0.90
70689;SPS30;58266;52.166;5.290;2022-11-02T04:43:18;5.14;4.90;3.67;2.03;16.44;16.39;16.08;14.43;10.41;0.89
70689;SPS30;58266;52.166;5.290;2022-11-02T04:45:18;4.29;4.09;3.11;1.78;14.45;14.41;14.16;12.83;9.46;0.85
70689;SPS30;58266;52.166;5.290;2022-11-02T04:47:18;4.38;4.18;3.19;1.87;15.12;15.08;14.83;13.51;10.05;0.83
70689;SPS30;58266;52.166;5.290;2022-11-02T04:49:18;4.59;4.38;3.32;1.91;15.48;15.44;15.18;13.77;10.16;0.85
70689;SPS30;58266;52.166;5.290;2022-11-02T04:51:19;4.54;4.33;3.29;1.89;15.31;15.27;15.01;13.61;10.04;0.85
70689;SPS30;58266;52.166;5.290;2022-11-02T04:53:20;4.55;4.34;3.30;1.90;15.37;15.33;15.07;13.67;10.09;0.86
70689;SPS30;58266;52.166;5.290;2022-11-02T04:55:20;4.61;4.40;3.35;1.95;15.75;15.71;15.45;14.04;10.41;0.84
70689;SPS30;58266;52.166;5.290;2022-11-02T04:57:20;4.54;4.34;3.32;1.95;15.81;15.78;15.52;14.15;10.57;0.84
70689;SPS30;58266;52.166;5.290;2022-11-02T04:59:20;4.24;4.06;3.13;1.88;15.22;15.19;14.96;13.71;10.35;0.84
70689;SPS30;58266;52.166;5.290;2022-11-02T05:01:20;4.27;4.08;3.10;1.80;14.55;14.51;14.27;12.96;9.60;0.86
70689;SPS30;58266;52.166;5.290;2022-11-02T05:03:21;4.43;4.22;3.17;1.78;14.41;14.37;14.10;12.70;9.23;0.87
70689;SPS30;58266;52.166;5.290;2022-11-02T05:05:21;4.72;4.50;3.38;1.90;15.38;15.33;15.05;13.56;9.86;0.87
70689;SPS30;58266;52.166;5.290;2022-11-02T05:07:21;5.02;4.78;3.58;1.99;16.11;16.06;15.76;14.16;10.23;0.87
70689;SPS30;58266;52.166;5.290;2022-11-02T05:09:21;5.27;5.01;3.72;2.02;16.35;16.30;15.98;14.26;10.15;0.90
70689;SPS30;58266;52.166;5.290;2022-11-02T05:11:21;4.85;4.61;3.42;1.84;14.96;14.91;14.61;13.02;9.25;0.90
70689;SPS30;58266;52.166;5.290;2022-11-02T05:13:25;4.90;4.65;3.44;1.83;14.87;14.83;14.52;12.90;9.09;0.90
70689;SPS30;58266;52.166;5.290;2022-11-02T05:15:25;5.17;4.91;3.58;1.84;14.93;14.88;14.55;12.78;8.78;0.93
70689;SPS30;58266;52.166;5.290;2022-11-02T05:17:25;5.07;4.81;3.51;1.81;14.68;14.63;14.30;12.57;8.65;0.93
70689;SPS30;58266;52.166;5.290;2022-11-02T05:19:25;5.63;5.34;3.89;1.98;16.14;16.09;15.72;13.79;9.44;0.95
70689;SPS30;58266;52.166;5.290;2022-11-02T05:21:26;4.60;4.37;3.22;1.70;13.84;13.79;13.51;11.97;8.40;0.92
70689;SPS30;58266;52.166;5.290;2022-11-02T05:23:26;4.90;4.65;3.39;1.74;14.18;14.13;13.81;12.14;8.35;0.94
70689;SPS30;58266;52.166;5.290;2022-11-02T05:25:26;4.84;4.60;3.41;1.83;14.88;14.83;14.53;12.94;9.17;0.90
70689;SPS30;58266;52.166;5.290;2022-11-02T05:27:26;4.20;4.00;2.99;1.65;13.38;13.35;13.09;11.74;8.46;0.88
70689;SPS30;58266;52.166;5.290;2022-11-02T05:29:26;5.41;5.15;3.83;2.09;16.97;16.92;16.59;14.83;10.62;0.88
70689;SPS30;58266;52.166;5.290;2022-11-02T05:31:27;5.48;5.21;3.87;2.10;17.01;16.96;16.63;14.84;10.57;0.88
70689;SPS30;58266;52.166;5.290;2022-11-02T05:33:27;4.60;4.37;3.20;1.67;13.58;13.54;13.25;11.70;8.13;0.92
70689;SPS30;58266;52.166;5.290;2022-11-02T05:35:28;5.98;5.68;4.19;2.23;18.07;18.02;17.64;15.66;11.01;0.92
70689;SPS30;58266;52.166;5.290;2022-11-02T05:37:28;5.01;4.76;3.52;1.88;15.22;15.18;14.87;13.20;9.31;0.91
70689;SPS30;58266;52.166;5.290;2022-11-02T05:39:28;5.26;5.00;3.69;1.95;15.87;15.82;15.49;13.73;9.65;0.92
70689;SPS30;58266;52.166;5.290;2022-11-02T05:41:28;4.58;4.36;3.22;1.72;13.98;13.94;13.65;12.13;8.57;0.91
70689;SPS30;58266;52.166;5.290;2022-11-02T05:43:28;5.09;4.83;3.54;1.85;15.01;14.96;14.64;12.92;8.98;0.94
70689;SPS30;58266;52.166;5.290;2022-11-02T05:45:28;5.33;5.05;3.67;1.86;15.14;15.09;14.74;12.90;8.79;0.96
70689;SPS30;58266;52.166;5.290;2022-11-02T05:47:29;5.88;5.57;4.05;2.06;16.73;16.67;16.29;14.26;9.72;0.95
70689;SPS30;58266;52.166;5.290;2022-11-02T05:49:29;5.65;5.36;3.89;1.97;16.05;16.00;15.63;13.68;9.32;0.93
70689;SPS30;58266;52.166;5.290;2022-11-02T05:51:29;4.84;4.59;3.35;1.72;13.99;13.94;13.63;11.98;8.23;0.93
70689;SPS30;58266;52.166;5.290;2022-11-02T05:53:30;4.92;4.67;3.40;1.73;14.09;14.04;13.72;12.03;8.23;0.94
70689;SPS30;58266;52.166;5.290;2022-11-02T05:55:30;5.30;5.02;3.61;1.77;14.39;14.34;13.99;12.11;8.04;0.96
70689;SPS30;58266;52.166;5.290;2022-11-02T05:57:30;5.57;5.27;3.77;1.81;14.74;14.68;14.31;12.31;8.03;0.98
70689;SPS30;58266;52.166;5.290;2022-11-02T05:59:30;5.17;4.89;3.49;1.66;13.57;13.52;13.17;11.31;7.35;0.98
70689;SPS30;58266;52.166;5.290;2022-11-02T06:01:30;5.29;5.01;3.62;1.79;14.61;14.55;14.21;12.35;8.27;0.96
70689;SPS30;58266;52.166;5.290;2022-11-02T06:03:31;5.54;5.25;3.80;1.90;15.48;15.42;15.06;13.13;8.86;0.95
70689;SPS30;58266;52.166;5.290;2022-11-02T06:05:31;5.01;4.75;3.44;1.73;14.06;14.01;13.69;11.95;8.08;0.95
70689;SPS30;58266;52.166;5.290;2022-11-02T06:07:31;5.42;5.13;3.72;1.86;15.14;15.09;14.73;12.84;8.67;0.95
70689;SPS30;58266;52.166;5.290;2022-11-02T06:09:32;5.55;5.26;3.81;1.90;15.44;15.38;15.02;13.07;8.79;0.95
70689;SPS30;58266;52.166;5.290;2022-11-02T06:11:32;5.47;5.18;3.72;1.82;14.85;14.79;14.43;12.50;8.29;0.96
70689;SPS30;58266;52.166;5.290;2022-11-02T06:13:32;5.17;4.89;3.49;1.67;13.61;13.56;13.21;11.35;7.39;0.99
70689;SPS30;58266;52.166;5.290;2022-11-02T06:15:32;5.19;4.90;3.47;1.60;13.08;13.03;12.67;10.76;6.80;1.01
70689;SPS30;58266;52.166;5.290;2022-11-02T06:17:41;5.70;5.38;3.78;1.70;13.93;13.88;13.48;11.35;7.01;1.03
70689;SPS30;58266;52.166;5.290;2022-11-02T06:19:41;6.10;5.77;4.08;1.90;15.49;15.42;15.00;12.77;8.10;1.00
70689;SPS30;58266;52.166;5.290;2022-11-02T06:21:41;5.40;5.10;3.61;1.67;13.62;13.56;13.19;11.20;7.08;1.01
70689;SPS30;58266;52.166;5.290;2022-11-02T06:23:41;4.80;4.54;3.22;1.51;12.34;12.30;11.97;10.22;6.55;1.00
70689;SPS30;58266;52.166;5.290;2022-11-02T06:25:41;5.57;5.26;3.73;1.74;14.17;14.11;13.73;11.69;7.43;1.00
70689;SPS30;58266;52.166;5.290;2022-11-02T06:27:48;4.56;4.31;3.06;1.43;11.70;11.66;11.35;9.69;6.20;0.98
70689;SPS30;58266;52.166;5.290;2022-11-02T06:29:49;4.81;4.55;3.26;1.57;12.80;12.75;12.43;10.71;7.01;0.97
70689;SPS30;58266;52.166;5.290;2022-11-02T06:31:49;4.67;4.41;3.15;1.50;12.25;12.20;11.89;10.20;6.63;0.98
70689;SPS30;58266;52.166;5.290;2022-11-02T06:33:49;4.35;4.12;2.92;1.37;11.15;11.11;10.81;9.22;5.89;0.98
70689;SPS30;58266;52.166;5.290;2022-11-02T06:35:50;4.65;4.39;3.11;1.45;11.85;11.80;11.48;9.78;6.23;0.99
70689;SPS30;58266;52.166;5.290;2022-11-02T06:37:51;3.68;3.48;2.49;1.19;9.72;9.68;9.43;8.11;5.29;0.96
70689;SPS30;58266;52.166;5.290;2022-11-02T06:39:52;3.96;3.75;2.70;1.33;10.82;10.78;10.52;9.13;6.08;0.95
70689;SPS30;58266;52.166;5.290;2022-11-02T06:41:52;4.06;3.84;2.75;1.34;10.89;10.85;10.57;9.13;6.02;0.96
70689;SPS30;58266;52.166;5.290;2022-11-02T06:43:52;4.47;4.23;3.04;1.48;12.04;11.99;11.69;10.10;6.67;0.95
70689;SPS30;58266;52.166;5.290;2022-11-02T06:45:52;4.11;3.89;2.79;1.35;10.99;10.95;10.68;9.21;6.06;0.96
70689;SPS30;58266;52.166;5.290;2022-11-02T06:47:53;4.06;3.85;2.76;1.35;10.98;10.94;10.67;9.23;6.11;0.96
70689;SPS30;58266;52.166;5.290;2022-11-02T06:49:53;3.72;3.52;2.56;1.29;10.48;10.45;10.20;8.91;6.05;0.94
70689;SPS30;58266;52.166;5.290;2022-11-02T06:51:53;4.57;4.32;3.11;1.52;12.37;12.33;12.02;10.40;6.89;0.97
70689;SPS30;58266;52.166;5.290;2022-11-02T06:53:53;4.13;3.91;2.82;1.39;11.35;11.31;11.04;9.59;6.41;0.96
70689;SPS30;58266;52.166;5.290;2022-11-02T06:55:54;4.03;3.82;2.80;1.46;11.89;11.85;11.60;10.24;7.12;0.91
70689;SPS30;58266;52.166;5.290;2022-11-02T06:57:54;3.44;3.27;2.41;1.28;10.35;10.32;10.11;8.96;6.29;0.91
70689;SPS30;58266;52.166;5.290;2022-11-02T06:59:55;3.62;3.44;2.53;1.32;10.74;10.70;10.47;9.25;6.44;0.92
70689;SPS30;58266;52.166;5.290;2022-11-02T07:01:55;3.66;3.47;2.55;1.33;10.84;10.81;10.58;9.35;6.51;0.91
70689;SPS30;58266;52.166;5.290;2022-11-02T07:03:55;3.26;3.09;2.27;1.19;9.69;9.66;9.45;8.36;5.83;0.91
70689;SPS30;58266;52.166;5.290;2022-11-02T07:05:55;3.56;3.39;2.49;1.31;10.67;10.64;10.41;9.22;6.45;0.91
70689;SPS30;58266;52.166;5.290;2022-11-02T07:07:55;3.14;2.98;2.21;1.18;9.60;9.57;9.37;8.34;5.89;0.91
70689;SPS30;58266;52.166;5.290;2022-11-02T07:09:56;2.85;2.71;2.00;1.07;8.67;8.65;8.47;7.52;5.31;0.91
70689;SPS30;58266;52.166;5.290;2022-11-02T07:11:56;2.67;2.54;1.88;1.01;8.17;8.14;7.98;7.10;5.02;0.91
70689;SPS30;58266;52.166;5.290;2022-11-02T07:13:56;2.90;2.76;2.05;1.11;9.03;9.01;8.83;7.88;5.61;0.89
70689;SPS30;58266;52.166;5.290;2022-11-02T07:15:56;3.25;3.09;2.29;1.23;9.97;9.94;9.74;8.67;6.14;0.90
70689;SPS30;58266;52.166;5.290;2022-11-02T07:17:56;2.96;2.81;2.08;1.12;9.07;9.04;8.86;7.88;5.58;0.89
70689;SPS30;58266;52.166;5.290;2022-11-02T07:19:57;3.04;2.89;2.15;1.17;9.52;9.49;9.30;8.31;5.94;0.88
70689;SPS30;58266;52.166;5.290;2022-11-02T07:21:57;2.90;2.77;2.10;1.20;9.72;9.69;9.52;8.62;6.34;0.86
70689;SPS30;58266;52.166;5.290;2022-11-02T07:23:57;2.86;2.73;2.08;1.21;9.78;9.76;9.59;8.72;6.47;0.86
70689;SPS30;58266;52.166;5.290;2022-11-02T07:26:00;2.84;2.71;2.07;1.21;9.77;9.75;9.59;8.72;6.49;0.85
70689;SPS30;58266;52.166;5.290;2022-11-02T07:28:00;2.71;2.59;1.98;1.17;9.43;9.41;9.25;8.44;6.29;0.84
70689;SPS30;58266;52.166;5.290;2022-11-02T07:30:01;2.96;2.82;2.13;1.20;9.70;9.67;9.50;8.57;6.25;0.87
70689;SPS30;58266;52.166;5.290;2022-11-02T07:32:01;3.11;2.96;2.21;1.22;9.88;9.85;9.67;8.66;6.23;0.88
70689;SPS30;58266;52.166;5.290;2022-11-02T07:34:01;2.89;2.76;2.08;1.17;9.49;9.46;9.29;8.38;6.11;0.88
70689;SPS30;58266;52.166;5.290;2022-11-02T07:36:02;2.72;2.59;1.96;1.12;9.09;9.06;8.91;8.06;5.93;0.88
70689;SPS30;58266;52.166;5.290;2022-11-02T07:38:03;2.90;2.77;2.09;1.18;9.59;9.56;9.39;8.48;6.21;0.88
70689;SPS30;58266;52.166;5.290;2022-11-02T07:40:04;2.92;2.79;2.10;1.19;9.61;9.58;9.41;8.49;6.19;0.89
70689;SPS30;58266;52.166;5.290;2022-11-02T07:42:05;2.76;2.63;1.97;1.08;8.79;8.77;8.60;7.71;5.55;0.89
70689;SPS30;58266;52.166;5.290;2022-11-02T07:44:05;3.13;2.98;2.24;1.25;10.14;10.11;9.92;8.93;6.48;0.89
70689;SPS30;58266;52.166;5.290;2022-11-02T07:46:06;2.70;2.57;1.94;1.09;8.81;8.79;8.63;7.77;5.66;0.88
70689;SPS30;58266;52.166;5.290;2022-11-02T07:48:06;2.62;2.50;1.89;1.07;8.68;8.65;8.50;7.68;5.62;0.87
70689;SPS30;58266;52.166;5.290;2022-11-02T07:50:07;2.89;2.75;2.07;1.17;9.47;9.45;9.27;8.36;6.10;0.88
70689;SPS30;58266;52.166;5.290;2022-11-02T07:52:07;3.61;3.44;2.58;1.43;11.59;11.56;11.34;10.19;7.36;0.88
70689;SPS30;58266;52.166;5.290;2022-11-02T07:54:07;2.99;2.84;2.12;1.17;9.45;9.43;9.25;8.28;5.95;0.89
70689;SPS30;58266;52.166;5.290;2022-11-02T07:56:07;2.73;2.60;1.95;1.09;8.86;8.83;8.67;7.80;5.67;0.87
70689;SPS30;58266;52.166;5.290;2022-11-02T07:58:10;2.96;2.82;2.12;1.19;9.63;9.60;9.43;8.49;6.17;0.87
70689;SPS30;58266;52.166;5.290;2022-11-02T08:00:10;2.95;2.81;2.11;1.18;9.57;9.54;9.37;8.43;6.12;0.88
70689;SPS30;58266;52.166;5.290;2022-11-02T08:02:13;2.71;2.58;1.93;1.07;8.66;8.64;8.47;7.60;5.48;0.88
70689;SPS30;58266;52.166;5.290;2022-11-02T08:04:15;3.12;2.97;2.22;1.22;9.90;9.87;9.68;8.68;6.24;0.89
70689;SPS30;58266;52.166;5.290;2022-11-02T08:06:15;2.95;2.80;2.09;1.14;9.28;9.25;9.07;8.12;5.82;0.89